Data for 10/10/2017

Time Sea-Level Adjusted Pressure Absolute Pressure Temperature Relative Humidity Dew Point   
(mb) (inHg) (mb) (inHg) (C) (F) (%) (C) (F)
00:05 1024 30.24 853 25.19 3 37.4 50 -6.5 20.3
00:10 1024 30.24 853 25.19 3 37.4 49 -6.8 19.8
00:15 1024 30.24 853 25.19 2.9 37.3 50 -6.5 20.3
00:20 1024 30.24 853 25.19 2.8 37 51 -6.4 20.5
00:25 1024 30.24 853 25.19 2.4 36.3 53 -6.2 20.8
00:30 1024 30.24 853 25.19 2.2 36 54 -6.2 20.9
00:35 1024 30.24 853 25.19 2.1 35.8 53 -6.4 20.5
00:40 1024 30.24 853 25.19 2 35.6 55 -6 21.3
00:45 1024 30.24 853 25.19 2 35.7 54 -6.2 20.9
00:50 1024 30.24 853 25.19 2.3 36.2 55 -5.8 21.5
00:55 1024 30.24 853 25.19 1.7 35.1 57 -6 21.1
01:00 1024 30.24 853 25.19 1.9 35.4 48 -8 17.6
01:05 1024 30.24 853 25.19 3 37.4 46 -7.5 18.5
01:10 1024 30.24 853 25.19 2.5 36.6 52 -6.4 20.4
01:15 1024 30.24 853 25.19 1.9 35.5 49 -7.8 18
01:20 1024 30.24 853 25.19 2.2 36 49 -7.5 18.5
01:25 1024 30.24 853 25.19 2.4 36.4 46 -8.1 17.4
01:30 1024 30.24 853 25.19 2.5 36.6 49 -7.2 19
01:35 1024 30.24 853 25.19 1.7 35.1 52 -7.2 19
01:40 1024 30.24 853 25.19 2.1 35.8 51 -7 19.4
01:45 1024 30.24 853 25.19 2.3 36.1 49 -7.3 18.9
01:50 1024 30.24 853 25.19 2.8 37 50 -6.6 20.2
01:55 1024 30.24 853 25.19 2.4 36.4 51 -6.6 20.2
02:00 1024 30.24 853 25.19 2.2 36 53 -6.4 20.5
02:05 1024 30.24 853 25.19 1.9 35.5 53 -6.8 19.8
02:10 1024 30.24 853 25.19 2 35.6 52 -6.7 19.9
02:15 1024 30.24 853 25.19 2.1 35.7 53 -6.4 20.4
02:20 1024 30.24 853 25.19 1.8 35.2 55 -6.4 20.5
02:25 1024 30.24 853 25.19 1.6 34.9 56 -6.3 20.6
02:30 1024 30.24 853 25.19 1.4 34.6 56 -6.4 20.5
02:35 1024 30.24 853 25.19 1.3 34.4 57 -6.4 20.5
02:40 1023 30.21 853 25.19 1.3 34.3 57 -6.3 20.6
02:45 1024 30.24 853 25.19 1.1 33.9 58 -6.3 20.6
02:50 1023 30.21 853 25.19 1.5 34.6 53 -7.2 19
02:55 1023 30.21 853 25.19 2.2 36 49 -7.5 18.4
03:00 1023 30.21 853 25.19 2.5 36.4 49 -7.2 19
03:05 1023 30.21 852 25.16 2.4 36.2 50 -7 19.5
03:10 1023 30.21 852 25.16 2 35.6 51 -7.1 19.3
03:15 1023 30.21 852 25.16 1.8 35.2 52 -7 19.4
03:20 1023 30.21 852 25.16 1.5 34.8 52 -7.3 18.9
03:25 1023 30.21 852 25.16 1.7 35.1 49 -7.8 18
03:30 1023 30.21 852 25.16 2.2 35.9 48 -7.6 18.2
03:35 1023 30.21 852 25.16 2.2 36 48 -7.7 18.1
03:40 1023 30.21 852 25.16 2.5 36.4 47 -7.8 17.9
03:45 1023 30.21 852 25.16 3 37.4 45 -7.7 18.1
03:50 1023 30.21 852 25.16 2.9 37.2 45 -7.8 17.9
03:55 1023 30.21 852 25.16 2.8 37 46 -7.7 18.2
04:00 1023 30.21 852 25.16 2.6 36.7 47 -7.6 18.3
04:05 1023 30.21 852 25.16 2.3 36.1 50 -7.1 19.1
04:10 1022 30.18 852 25.16 1.7 35.1 52 -7.2 19
04:15 1022 30.18 852 25.16 1.3 34.4 53 -7.3 18.8
04:20 1022 30.18 852 25.16 1.2 34.1 52 -7.6 18.3
04:25 1022 30.18 852 25.16 1.4 34.6 51 -7.7 18.2
04:30 1022 30.18 852 25.16 1.6 34.9 50 -7.7 18.1
04:35 1022 30.18 852 25.16 1.4 34.5 52 -7.4 18.7
04:40 1022 30.18 851 25.13 1.7 35 47 -8.4 16.8
04:45 1022 30.18 851 25.13 2.3 36.2 46 -8.3 17.1
04:50 1022 30.18 851 25.13 2.4 36.4 48 -7.5 18.5
04:55 1022 30.18 851 25.13 1.9 35.4 49 -7.8 17.9
05:00 1022 30.18 851 25.13 1.7 35.1 50 -7.7 18.2
05:05 1022 30.18 851 25.13 1.4 34.6 51 -7.5 18.4
05:10 1022 30.18 851 25.13 1.3 34.4 52 -7.6 18.3
05:15 1022 30.18 851 25.13 1.3 34.3 50 -8 17.6
05:20 1022 30.18 851 25.13 1.9 35.4 46 -8.5 16.7
05:25 1022 30.18 851 25.13 2.5 36.4 45 -8.3 17
05:30 1022 30.18 851 25.13 2.6 36.7 45 -8.1 17.4
05:35 1022 30.18 851 25.13 2.5 36.4 46 -8.1 17.5
05:40 1022 30.18 851 25.13 2.3 36.1 48 -7.7 18.2
05:45 1022 30.18 851 25.13 2 35.6 48 -7.9 17.9
05:50 1022 30.18 851 25.13 1.9 35.4 49 -7.8 18
05:55 1022 30.18 851 25.13 1.8 35.2 50 -7.4 18.6
06:00 1022 30.18 851 25.13 1.2 34.1 53 -7.3 18.9
06:05 1022 30.18 851 25.13 1.5 34.7 49 -8 17.6
06:10 1022 30.18 851 25.13 2.1 35.8 52 -6.8 19.8
06:15 1022 30.18 851 25.13 1.8 35.2 53 -6.8 19.7
06:20 1021 30.15 851 25.13 2.3 36.1 46 -8.2 17.2
06:25 1021 30.15 851 25.13 2.3 36.1 48 -7.6 18.4
06:30 1021 30.15 851 25.13 2.2 35.9 48 -7.8 17.9
06:35 1021 30.15 850 25.1 2.1 35.8 48 -7.8 18
06:40 1021 30.15 850 25.1 1.8 35.3 50 -7.6 18.4
06:45 1021 30.15 850 25.1 1.8 35.2 47 -8.3 17
06:50 1021 30.15 850 25.1 2.6 36.6 46 -8 17.7
06:55 1021 30.15 850 25.1 2.3 36.1 47 -7.8 18
07:00 1021 30.15 850 25.1 1.5 34.7 52 -7.2 19
07:05 1021 30.15 850 25.1 0.8 33.4 55 -7.2 19
07:10 1021 30.15 850 25.1 0.8 33.4 52 -8.1 17.4
07:15 1021 30.15 850 25.1 1.1 33.9 55 -7 19.3
07:20 1021 30.15 850 25.1 0.8 33.5 56 -7 19.3
07:25 1021 30.15 850 25.1 1.2 34.1 53 -7.4 18.7
07:30 1021 30.15 850 25.1 1.5 34.7 53 -7.2 19.1
07:35 1021 30.15 850 25.1 1.7 35 51 -7.4 18.8
07:40 1021 30.15 850 25.1 2 35.6 50 -7.3 18.9
07:45 1021 30.15 850 25.1 1.9 35.4 53 -6.6 20.1
07:50 1021 30.15 850 25.1 1.4 34.5 56 -6.4 20.4
07:55 1021 30.15 850 25.1 0.9 33.7 57 -6.7 20
08:00 1021 30.15 850 25.1 1 33.9 57 -6.6 20.2
08:05 1021 30.15 850 25.1 0.6 33.2 61 -6.1 21.1
08:10 1021 30.15 850 25.1 0.6 33.1 55 -7.4 18.7
08:15 1021 30.15 850 25.1 1.5 34.6 51 -7.6 18.4
08:20 1021 30.15 850 25.1 2 35.6 49 -7.6 18.4
08:25 1021 30.15 850 25.1 2.3 36.2 50 -7.1 19.2
08:30 1021 30.15 850 25.1 2.1 35.7 49 -7.5 18.4
08:35 1021 30.15 850 25.1 2.3 36.1 49 -7.3 18.8
08:40 1021 30.15 850 25.1 2.6 36.7 46 -7.9 17.7
08:45 1021 30.15 850 25.1 3.1 37.6 43 -8.2 17.2
08:50 1021 30.15 850 25.1 3.6 38.5 45 -7.4 18.8
08:55 1021 30.15 850 25.1 4.2 39.5 46 -6.4 20.4
09:00 1021 30.15 850 25.1 4.2 39.5 46 -6.5 20.4
09:05 1021 30.15 850 25.1 4.3 39.8 46 -6.4 20.4
09:10 1021 30.15 850 25.1 4.1 39.4 43 -7.5 18.6
09:15 1021 30.15 850 25.1 4.3 39.7 43 -7.4 18.7
09:20 1021 30.15 850 25.1 4.9 40.9 41 -7.3 18.9
09:25 1021 30.15 850 25.1 5 41.1 39 -7.9 17.8
09:30 1021 30.15 850 25.1 4.8 40.6 40 -7.8 17.9
09:35 1021 30.15 850 25.1 4.6 40.3 39 -8.2 17.2
09:40 1020 30.12 850 25.1 5 41 38 -8.2 17.3
09:45 1020 30.12 850 25.1 5.3 41.5 37 -8.2 17.2
09:50 1020 30.12 850 25.1 5.5 42 37 -8.1 17.4
09:55 1020 30.12 850 25.1 5.8 42.4 35 -8.6 16.5
10:00 1020 30.12 850 25.1 5.9 42.6 35 -8.4 16.9
10:05 1020 30.12 850 25.1 6.1 43 35 -8.2 17.2
10:10 1020 30.12 850 25.1 6.7 44.1 33 -8.4 16.9
10:15 1020 30.12 849 25.07 6.5 43.7 33 -8.5 16.7
10:20 1020 30.12 849 25.07 6.9 44.4 33 -8.5 16.8
10:25 1020 30.12 849 25.07 6.8 44.3 33 -8.4 16.9
10:30 1020 30.12 849 25.07 7.1 44.8 33 -8.2 17.2
10:35 1020 30.12 849 25.07 7 44.6 32 -8.4 16.8
10:40 1020 30.12 849 25.07 7.2 45 32 -8.4 16.8
10:45 1020 30.12 849 25.07 7.9 46.1 30 -8.5 16.7
10:50 1020 30.12 849 25.07 8.3 47 30 -8.1 17.3
10:55 1020 30.12 849 25.07 9 48.3 29 -8.1 17.4
11:00 1020 30.12 849 25.07 9.5 49.2 29 -7.8 17.9
11:05 1020 30.12 849 25.07 9.8 49.6 28 -8 17.6
11:10 1020 30.12 849 25.07 10.3 50.5 26 -8.3 17
11:15 1019 30.09 849 25.07 10.3 50.6 27 -8 17.7
11:20 1019 30.09 849 25.07 9.9 49.7 27 -8.3 17.1
11:25 1019 30.09 848 25.04 10.6 51 26 -7.9 17.7
11:30 1019 30.09 848 25.04 11.3 52.3 25 -7.9 17.8
11:35 1019 30.09 848 25.04 11.3 52.4 25 -8 17.6
11:40 1019 30.09 848 25.04 11.6 52.9 24 -8.2 17.2
11:45 1019 30.09 848 25.04 11.5 52.8 24 -8.2 17.3
11:50 1019 30.09 848 25.04 12 53.5 24 -8.2 17.3
11:55 1018 30.06 848 25.04 12.8 55 23 -7.7 18.1
12:00 1018 30.06 848 25.04 12.7 54.9 24 -7.6 18.4
12:05 1018 30.06 847 25.01 12.4 54.2 23 -8.2 17.2
12:10 1018 30.06 847 25.01 12.6 54.7 23 -7.8 17.9
12:15 1018 30.06 847 25.01 13 55.4 23 -7.4 18.7
12:20 1018 30.06 847 25.01 13.5 56.3 24 -6.7 19.9
12:25 1018 30.06 847 25.01 13.3 56 23 -7.2 19.1
12:30 1018 30.06 847 25.01 13.4 56.1 24 -7 19.4
12:35 1018 30.06 847 25.01 13.6 56.5 22 -7.5 18.5
12:40 1018 30.06 847 25.01 13.4 56 24 -7 19.4
12:45 1018 30.06 847 25.01 13.9 57.1 22 -7.4 18.7
12:50 1017 30.03 847 25.01 13.9 56.9 22 -7.3 18.8
12:55 1017 30.03 847 25.01 13.6 56.4 27 -5.2 22.6
13:00 1017 30.03 846 24.98 13.6 56.4 24 -6.6 20.2
13:05 1017 30.03 846 24.98 12.8 55.1 27 -5.8 21.5
13:10 1017 30.03 846 24.98 13.7 56.7 25 -6 21.1
13:15 1017 30.03 846 24.98 13.2 55.8 27 -5.2 22.6
13:20 1017 30.03 846 24.98 12.7 54.9 28 -5.4 22.3
13:25 1017 30.03 846 24.98 13 55.5 26 -5.9 21.3
13:30 1017 30.03 846 24.98 13.6 56.5 26 -5.4 22.2
13:35 1017 30.03 846 24.98 13.2 55.7 27 -5.2 22.6
13:40 1017 30.03 846 24.98 12.9 55.1 26 -5.9 21.3
13:45 1017 30.03 846 24.98 13.1 55.5 26 -6.1 21
13:50 1017 30.03 846 24.98 12.6 54.6 29 -5.1 22.9
13:55 1017 30.03 846 24.98 12.4 54.3 27 -5.9 21.4
14:00 1017 30.03 846 24.98 13.2 55.7 26 -5.8 21.6
14:05 1016 30 846 24.98 13.8 56.8 25 -5.7 21.7
14:10 1016 30 846 24.98 13.8 56.9 24 -6.1 21
14:15 1016 30 846 24.98 13.3 55.9 24 -6.6 20.1
14:20 1016 30 846 24.98 13.3 55.9 24 -6.9 19.6
14:25 1016 30 846 24.98 13.4 56 24 -6.6 20.1
14:30 1016 30 846 24.98 12.9 55.1 25 -6.5 20.2
14:35 1016 30 846 24.98 13.4 56 24 -6.6 20.1
14:40 1016 30 846 24.98 13.5 56.3 24 -6.7 20
14:45 1016 30 845 24.95 13.5 56.3 24 -6.5 20.3
14:50 1016 30 845 24.95 13.7 56.6 24 -6.3 20.6
14:55 1016 30 845 24.95 13.3 55.9 24 -6.9 19.6
15:00 1016 30 845 24.95 13.5 56.3 23 -7.2 19.1
15:05 1016 30 845 24.95 13.7 56.6 22 -7.5 18.4
15:10 1016 30 845 24.95 13.7 56.7 21 -7.9 17.8
15:15 1016 30 845 24.95 13.8 56.9 22 -7.7 18.1
15:20 1016 30 845 24.95 13.8 56.9 22 -7.7 18.1
15:25 1016 30 845 24.95 13.2 55.7 22 -7.9 17.8
15:30 1016 30 845 24.95 14.2 57.5 20 -8.2 17.2
15:35 1016 30 845 24.95 14.6 58.2 21 -7.5 18.5
15:40 1015 29.97 845 24.95 14.3 57.7 21 -7.7 18.1
15:45 1015 29.97 844 24.92 14.5 58 19 -8.9 16
15:50 1015 29.97 844 24.92 14.5 58 20 -8.1 17.4
15:55 1015 29.97 844 24.92 14.1 57.4 20 -8.3 17.1
16:00 1015 29.97 844 24.92 14.3 57.7 20 -8.3 17
16:05 1015 29.97 844 24.92 14.3 57.7 20 -8.4 16.9
16:10 1015 29.97 844 24.92 14.9 58.8 19 -8.5 16.7
16:15 1015 29.97 844 24.92 15.6 60 18 -8.4 16.9
16:20 1015 29.97 844 24.92 15.8 60.5 17 -9.1 15.6
16:25 1015 29.97 844 24.92 16.7 62 15 -9.7 14.5
16:30 1015 29.97 844 24.92 16.7 62.1 15 -9.9 14.2
16:35 1015 29.97 844 24.92 16.6 61.8 17 -8.8 16.1
16:40 1015 29.97 844 24.92 16.7 62.1 16 -9.3 15.3
16:45 1014 29.94 844 24.92 16.6 61.8 16 -9 15.7
16:50 1014 29.94 844 24.92 16.9 62.3 15 -9.7 14.5
16:55 1014 29.94 843 24.89 17.1 62.7 15 -9.7 14.6
17:00 1014 29.94 843 24.89 17.2 63 15 -9.9 14.1
17:05 1014 29.94 843 24.89 17.4 63.2 14 -10 14.1
17:10 1014 29.94 843 24.89 17.2 63 15 -9.9 14.1
17:15 1014 29.94 843 24.89 17.1 62.8 14 -10.3 13.5
17:20 1014 29.94 843 24.89 17.1 62.9 14 -10.8 12.6
17:25 1014 29.94 843 24.89 16.9 62.4 15 -10 13.9
17:30 1014 29.94 843 24.89 17 62.6 14 -10.9 12.4
17:35 1014 29.94 843 24.89 17 62.5 15 -9.7 14.5
17:40 1014 29.94 843 24.89 16.4 61.6 17 -8.6 16.5
17:45 1014 29.94 843 24.89 16.1 61 16 -9.8 14.3
17:50 1014 29.94 843 24.89 15.7 60.3 18 -8.7 16.3
17:55 1014 29.94 843 24.89 15.2 59.4 17 -9.4 15.1
18:00 1014 29.94 843 24.89 15 58.9 18 -9.2 15.5
18:05 1014 29.94 843 24.89 15.2 59.3 18 -8.8 16.1
18:10 1014 29.94 843 24.89 15.2 59.4 18 -8.8 16.1
18:15 1014 29.94 843 24.89 15.1 59.1 19 -8.7 16.4
18:20 1014 29.94 843 24.89 15 59.1 19 -8.4 17
18:25 1014 29.94 843 24.89 14.7 58.4 21 -7.5 18.6
18:30 1014 29.94 843 24.89 13.8 56.8 27 -4.8 23.4
18:35 1014 29.94 843 24.89 12.8 55 28 -5 23
18:40 1014 29.94 843 24.89 12 53.6 30 -4.8 23.3
18:45 1014 29.94 843 24.89 11.1 52 33 -4.6 23.6
18:50 1014 29.94 843 24.89 11.2 52.2 30 -5.8 21.5
18:55 1014 29.94 843 24.89 11.1 52 35 -3.7 25.3
19:00 1014 29.94 843 24.89 10.1 50.2 38 -3.5 25.7
19:05 1014 29.94 843 24.89 10.2 50.3 31 -6.3 20.6
19:10 1014 29.94 843 24.89 10.7 51.3 36 -3.8 25.2
19:15 1014 29.94 843 24.89 9.5 49.1 41 -3 26.7
19:20 1014 29.94 843 24.89 8.4 47.2 44 -3.1 26.4
19:25 1014 29.94 843 24.89 8.2 46.7 38 -5.2 22.6
19:30 1014 29.94 843 24.89 9.1 48.3 33 -6.4 20.4
19:35 1014 29.94 843 24.89 8.6 47.6 41 -3.9 25
19:40 1014 29.94 843 24.89 8.4 47.1 42 -3.8 25.1
19:45 1014 29.94 843 24.89 7.7 45.8 38 -5.9 21.4
19:50 1014 29.94 843 24.89 8.2 46.7 38 -5.3 22.5
19:55 1014 29.94 843 24.89 8 46.4 37 -5.7 21.7
20:00 1014 29.94 843 24.89 7.6 45.6 34 -7.3 18.8
20:05 1014 29.94 843 24.89 7.9 46.2 32 -7.9 17.9
20:10 1014 29.94 844 24.92 7.8 46.1 32 -8 17.5
20:15 1014 29.94 844 24.92 7.9 46.2 29 -8.9 16
20:20 1014 29.94 844 24.92 8.4 47 26 -10 14
20:25 1014 29.94 844 24.92 8.9 48 26 -9.5 14.9
20:30 1014 29.94 843 24.89 8.9 48 27 -9.3 15.3
20:35 1014 29.94 843 24.89 8.6 47.5 27 -9.4 15
20:40 1014 29.94 844 24.92 8.3 46.9 28 -9.2 15.5
20:45 1014 29.94 844 24.92 8 46.5 27 -9.9 14.2
20:50 1014 29.94 844 24.92 8.3 46.9 27 -9.9 14.3
20:55 1014 29.94 844 24.92 8 46.5 27 -10.1 13.9
21:00 1015 29.97 844 24.92 8.4 47 24 -11.1 12.1
21:05 1014 29.94 844 24.92 8.8 47.8 25 -10.3 13.5
21:10 1015 29.97 844 24.92 8.5 47.4 24 -10.7 12.8
21:15 1015 29.97 844 24.92 8.4 47.1 24 -11.1 12
21:20 1015 29.97 844 24.92 8.5 47.3 25 -10.6 13
21:25 1015 29.97 844 24.92 8.4 47.1 24 -11.1 12.1
21:30 1015 29.97 844 24.92 8.4 47.1 24 -11.2 11.8
21:35 1015 29.97 844 24.92 8.5 47.3 25 -10.6 13
21:40 1015 29.97 844 24.92 7.8 46 26 -10.7 12.7
21:45 1015 29.97 844 24.92 7.6 45.6 26 -10.8 12.5
21:50 1015 29.97 844 24.92 7.5 45.5 25 -11.2 11.9
21:55 1015 29.97 844 24.92 7.4 45.4 26 -11 12.3
22:00 1015 29.97 844 24.92 7.3 45.1 26 -10.9 12.4
22:05 1015 29.97 844 24.92 7 44.6 26 -11.2 11.9
22:10 1015 29.97 844 24.92 7.1 44.7 26 -11.2 11.9
22:15 1015 29.97 844 24.92 7.2 44.9 26 -11.3 11.7
22:20 1015 29.97 844 24.92 7.1 44.8 26 -11.3 11.7
22:25 1015 29.97 844 24.92 7.1 44.8 26 -11.2 11.9
22:30 1015 29.97 844 24.92 7 44.6 26 -11.1 12.1
22:35 1014 29.94 844 24.92 6.9 44.4 26 -11.3 11.6
22:40 1015 29.97 844 24.92 6.9 44.4 26 -11.1 12
22:45 1015 29.97 844 24.92 6.9 44.5 27 -10.9 12.3
22:50 1015 29.97 844 24.92 6.8 44.3 26 -11.3 11.7
22:55 1015 29.97 844 24.92 6.9 44.5 26 -11.4 11.5
23:00 1015 29.97 844 24.92 6.9 44.5 25 -11.6 11.1
23:05 1015 29.97 844 24.92 7.1 44.8 25 -11.6 11.1
23:10 1015 29.97 844 24.92 7.2 45 25 -11.5 11.3
23:15 1015 29.97 844 24.92 7.1 44.7 25 -11.5 11.3
23:20 1015 29.97 844 24.92 7 44.7 25 -11.6 11.1
23:25 1015 29.97 844 24.92 7 44.6 26 -11.4 11.5
23:30 1015 29.97 844 24.92 7.2 45 25 -11.4 11.4
23:35 1015 29.97 844 24.92 6.9 44.5 27 -10.9 12.4
23:40 1015 29.97 844 24.92 6.5 43.6 28 -10.9 12.4
23:45 1015 29.97 844 24.92 6.5 43.8 28 -10.9 12.4
23:50 1015 29.97 844 24.92 6.3 43.4 29 -10.5 13.2
23:55 1015 29.97 844 24.92 5.8 42.5 31 -10.1 13.8
24:00 1015 29.97 844 24.92 5.4 41.7 33 -9.8 14.3